Time;durP1;ratioP1;P1;durP2;ratioP2;P2;SDS_P1;SDS_P2;PMS_P1;PMS_P2;Temp;Humidity;BMP_temperature;BMP_pressure;BME280_temperature;BME280_humidity;BME280_pressure;Samples;Min_cycle;Max_cycle;Signal;HPM_P1;HPM_P2
2021/06/21 00:00:27;;;;;;;10.63;9.73;;;26.70;1.00;;;;;;5070350;28;20473;-60
2021/06/21 00:02:53;;;;;;;11.37;10.17;;;26.70;1.00;;;;;;5070431;28;20195;-60
2021/06/21 00:05:19;;;;;;;12.27;10.90;;;26.70;1.00;;;;;;5070475;28;20714;-59
2021/06/21 00:07:45;;;;;;;11.73;10.40;;;26.60;1.00;;;;;;5070454;28;20185;-60
2021/06/21 00:10:13;;;;;;;13.30;11.00;;;26.50;1.00;;;;;;5070326;28;20772;-60
2021/06/21 00:12:41;;;;;;;12.07;10.70;;;26.50;1.00;;;;;;5069950;28;20550;-61
2021/06/21 00:15:08;;;;;;;16.03;10.80;;;26.60;1.00;;;;;;5070260;28;20445;-60
2021/06/21 00:17:33;;;;;;;17.27;12.10;;;26.60;1.00;;;;;;5070120;28;20452;-59
2021/06/21 00:19:59;;;;;;;14.13;11.50;;;26.60;1.00;;;;;;5070140;28;20461;-60
2021/06/21 00:22:24;;;;;;;13.10;11.73;;;26.70;1.00;;;;;;5070564;28;20176;-60
2021/06/21 00:24:50;;;;;;;13.23;11.37;;;26.70;1.00;;;;;;5070341;28;20175;-59
2021/06/21 00:27:15;;;;;;;15.57;11.70;;;28.90;1.00;;;;;;5070109;28;20232;-59
2021/06/21 00:29:41;;;;;;;14.07;12.40;;;26.60;1.00;;;;;;5068522;28;20648;-59
2021/06/21 00:32:08;;;;;;;15.03;11.93;;;26.50;1.00;;;;;;5068786;28;20182;-60
2021/06/21 00:34:33;;;;;;;16.30;12.60;;;26.60;1.00;;;;;;5069922;28;20193;-59
2021/06/21 00:36:59;;;;;;;18.20;12.67;;;26.60;1.00;;;;;;5069951;28;20429;-60
2021/06/21 00:39:25;;;;;;;17.30;13.77;;;26.50;1.00;;;;;;5070099;28;20199;-60
2021/06/21 00:41:50;;;;;;;21.20;13.53;;;26.70;1.00;;;;;;5069959;28;20183;-60
2021/06/21 00:44:16;;;;;;;17.70;12.60;;;26.70;1.00;;;;;;5090329;28;20186;-60
2021/06/21 00:46:41;;;;;;;17.47;13.80;;;26.60;1.00;;;;;;5090045;28;20186;-60
2021/06/21 00:49:07;;;;;;;16.97;12.60;;;26.50;1.00;;;;;;5088728;28;20274;-59
2021/06/21 00:51:34;;;;;;;21.83;14.50;;;26.60;1.00;;;;;;5084890;28;20691;-60
2021/06/21 00:54:00;;;;;;;16.80;13.40;;;26.60;1.00;;;;;;5069879;28;20336;-60
2021/06/21 00:56:26;;;;;;;15.17;13.73;;;26.70;1.00;;;;;;5070026;28;20439;-61
2021/06/21 00:58:59;;;;;;;13.93;12.47;;;26.60;1.00;;;;;;5069696;28;20469;-60
2021/06/21 01:01:24;;;;;;;14.93;13.40;;;26.50;1.00;;;;;;5069922;28;20262;-59
2021/06/21 01:03:50;;;;;;;15.53;14.00;;;26.60;1.00;;;;;;5069748;28;20533;-61
2021/06/21 01:06:15;;;;;;;18.23;14.47;;;26.70;1.00;;;;;;5069811;28;20179;-60
2021/06/21 01:08:41;;;;;;;22.60;15.27;;;26.70;1.00;;;;;;5069799;28;20183;-61
2021/06/21 01:11:07;;;;;;;16.63;15.03;;;26.70;1.00;;;;;;5069602;28;20187;-60
2021/06/21 01:14:00;;;;;;;17.97;14.37;;;26.50;1.00;;;;;;5069713;28;20176;-60
2021/06/21 01:16:41;;;;;;;17.37;14.13;;;26.50;1.00;;;;;;5069578;28;20524;-60
2021/06/21 01:19:59;;;;;;;16.63;14.93;;;26.60;1.00;;;;;;5069689;28;20457;-60
2021/06/21 01:22:58;;;;;;;17.47;13.17;;;26.50;1.00;;;;;;5069837;28;20438;-60
2021/06/21 01:25:31;;;;;;;20.50;13.50;;;26.50;1.00;;;;;;5068637;28;20938;-60
2021/06/21 01:28:13;;;;;;;17.47;14.13;;;26.50;1.00;;;;;;5069740;28;20501;-60
2021/06/21 01:31:03;;;;;;;17.30;15.57;;;26.60;1.00;;;;;;5080939;28;20438;-60
2021/06/21 01:33:30;;;;;;;15.93;14.40;;;26.50;1.00;;;;;;5089712;28;20421;-60
2021/06/21 01:36:04;;;;;;;15.40;13.90;;;26.60;1.00;;;;;;5089872;28;20481;-60
2021/06/21 01:38:37;;;;;;;16.80;14.13;;;26.60;1.00;;;;;;5089620;28;20802;-60
2021/06/21 01:41:06;;;;;;;17.07;13.60;;;26.90;1.00;;;;;;5088274;28;20441;-60
2021/06/21 01:43:35;;;;;;;13.37;11.90;;;26.80;1.00;;;;;;5075460;28;20429;-61
2021/06/21 01:46:04;;;;;;;14.80;11.70;;;26.80;1.00;;;;;;5069670;28;20432;-61
2021/06/21 01:48:33;;;;;;;13.10;10.87;;;26.60;1.00;;;;;;5069314;28;20465;-59
2021/06/21 01:51:00;;;;;;;12.17;9.70;;;27.90;1.00;;;;;;5071020;28;20929;-60
2021/06/21 01:53:30;;;;;;;15.27;9.30;;;26.40;1.00;;;;;;5072922;28;20444;-60
2021/06/21 01:56:02;;;;;;;11.40;7.50;;;26.40;1.00;;;;;;5072989;28;20445;-59
2021/06/21 01:58:32;;;;;;;7.80;6.43;;;26.00;1.00;;;;;;5072564;28;20425;-59
2021/06/21 02:01:00;;;;;;;13.63;7.60;;;25.80;1.00;;;;;;5072777;28;20918;-60
2021/06/21 02:03:27;;;;;;;11.67;6.57;;;25.60;1.00;;;;;;5072458;28;20849;-59
2021/06/21 02:05:53;;;;;;;11.20;7.57;;;25.70;1.00;;;;;;5072582;28;20502;-59
2021/06/21 02:08:20;;;;;;;11.00;6.37;;;25.70;1.00;;;;;;5072402;28;20463;-59
2021/06/21 02:10:51;;;;;;;13.50;6.43;;;25.70;1.00;;;;;;5071161;28;20426;-60
2021/06/21 02:13:19;;;;;;;10.97;6.53;;;25.60;1.00;;;;;;5072247;28;20437;-59
2021/06/21 02:15:45;;;;;;;10.20;6.13;;;25.60;1.00;;;;;;5072361;28;20776;-60
2021/06/21 02:18:12;;;;;;;9.43;5.57;;;25.60;1.00;;;;;;5072415;28;20442;-60
2021/06/21 02:20:39;;;;;;;12.27;6.27;;;25.40;1.00;;;;;;5072859;28;20484;-60
2021/06/21 02:23:06;;;;;;;12.07;5.90;;;25.40;1.00;;;;;;5092535;28;20441;-59
2021/06/21 02:25:32;;;;;;;13.03;6.60;;;25.40;1.00;;;;;;5092304;28;20432;-60
2021/06/21 02:27:58;;;;;;;10.47;5.90;;;25.30;1.00;;;;;;5092134;28;20454;-60
2021/06/21 02:30:24;;;;;;;10.10;6.13;;;25.40;1.00;;;;;;5091945;28;20183;-60
2021/06/21 02:32:50;;;;;;;10.10;6.50;;;25.60;1.00;;;;;;5092177;28;20494;-59
2021/06/21 02:35:16;;;;;;;8.33;6.03;;;25.60;1.00;;;;;;5092036;28;20437;-60
2021/06/21 02:37:42;;;;;;;9.60;5.23;;;25.60;1.00;;;;;;5091887;28;20179;-60
2021/06/21 02:40:12;;;;;;;12.00;5.93;;;25.50;1.00;;;;;;5092079;28;20472;-59
2021/06/21 02:42:38;;;;;;;10.47;5.40;;;25.60;1.00;;;;;;5091911;28;20428;-59
2021/06/21 02:45:05;;;;;;;8.30;4.60;;;25.60;1.00;;;;;;5091996;28;20425;-60
2021/06/21 02:47:31;;;;;;;6.63;5.30;;;25.50;1.00;;;;;;5080743;28;20900;-59
2021/06/21 02:49:56;;;;;;;7.47;4.37;;;25.30;1.00;;;;;;5071790;28;20434;-60
2021/06/21 02:52:52;;;;;;;13.97;4.57;;;25.20;1.00;;;;;;5071828;28;20254;-59
2021/06/21 02:55:25;;;;;;;7.97;4.00;;;25.20;1.00;;;;;;5071685;28;20175;-60
2021/06/21 02:58:22;;;;;;;8.27;3.43;;;25.10;1.00;;;;;;5071639;28;20445;-59
2021/06/21 03:00:51;;;;;;;5.50;3.63;;;25.20;1.00;;;;;;5071207;28;20841;-60
2021/06/21 03:03:18;;;;;;;10.13;4.00;;;25.10;1.00;;;;;;5071237;28;20434;-60
2021/06/21 03:05:48;;;;;;;7.70;4.10;;;25.10;1.00;;;;;;5071400;28;20426;-61
2021/06/21 03:08:14;;;;;;;6.80;4.00;;;25.20;1.00;;;;;;5071522;28;20426;-59
2021/06/21 03:10:41;;;;;;;6.73;3.40;;;25.10;1.00;;;;;;5071467;28;20463;-60
2021/06/21 03:13:08;;;;;;;8.50;4.40;;;25.00;1.00;;;;;;5083255;28;20440;-62
2021/06/21 03:15:35;;;;;;;7.47;3.70;;;25.00;1.00;;;;;;5090382;28;20441;-60
2021/06/21 03:18:01;;;;;;;8.80;3.93;;;25.20;1.00;;;;;;5091276;28;20441;-59
2021/06/21 03:20:27;;;;;;;8.13;3.70;;;25.20;1.00;;;;;;5091312;28;20495;-60
2021/06/21 03:22:57;;;;;;;6.90;4.17;;;25.40;1.00;;;;;;5091459;28;20948;-61
2021/06/21 03:25:26;;;;;;;4.77;3.40;;;25.40;1.00;;;;;;5091423;28;20436;-60
2021/06/21 03:27:52;;;;;;;5.07;3.93;;;25.20;1.00;;;;;;5090316;28;20472;-59
2021/06/21 03:30:18;;;;;;;5.83;3.67;;;25.20;1.00;;;;;;5070663;28;20430;-60
2021/06/21 03:32:45;;;;;;;10.03;4.63;;;25.10;1.00;;;;;;5070911;28;20183;-59
2021/06/21 03:35:13;;;;;;;7.57;4.17;;;25.20;1.00;;;;;;5070608;28;20799;-59
2021/06/21 03:37:39;;;;;;;5.60;3.67;;;25.40;1.00;;;;;;5071152;28;20437;-61
2021/06/21 03:40:07;;;;;;;5.47;4.40;;;25.40;1.00;;;;;;5070894;28;20822;-60
2021/06/21 03:42:33;;;;;;;9.80;4.20;;;25.40;1.00;;;;;;5069784;28;20906;-60
2021/06/21 03:44:59;;;;;;;8.60;4.70;;;25.60;1.00;;;;;;5070955;28;20711;-61
2021/06/21 03:47:25;;;;;;;5.67;4.20;;;25.70;1.00;;;;;;5070492;28;20699;-60
2021/06/21 03:49:51;;;;;;;5.60;3.90;;;25.70;1.00;;;;;;5071083;28;20195;-59
2021/06/21 03:52:17;;;;;;;7.70;4.07;;;25.70;1.00;;;;;;5070334;28;20194;-60
2021/06/21 03:54:43;;;;;;;9.40;3.77;;;25.70;1.00;;;;;;5077781;28;20915;-59
2021/06/21 03:57:09;;;;;;;10.70;4.90;;;25.70;1.00;;;;;;5070349;28;20667;-61
2021/06/21 03:59:35;;;;;;;6.93;4.13;;;25.70;1.00;;;;;;5070739;28;20553;-61
2021/06/21 04:02:00;;;;;;;7.87;3.83;;;25.60;1.00;;;;;;5070341;28;20445;-63
2021/06/21 04:04:27;;;;;;;10.63;4.90;;;25.70;1.00;;;;;;5070265;28;20436;-61
2021/06/21 04:06:52;;;;;;;7.23;4.80;;;25.60;1.00;;;;;;5070611;28;20202;-60
2021/06/21 04:09:18;;;;;;;8.00;4.60;;;25.40;1.00;;;;;;5069936;28;20911;-60
2021/06/21 04:11:45;;;;;;;6.37;4.27;;;25.40;1.00;;;;;;5070963;28;20220;-60
2021/06/21 04:14:14;;;;;;;5.40;4.60;;;25.50;1.00;;;;;;5069642;28;20441;-59
2021/06/21 04:16:41;;;;;;;10.90;4.77;;;25.60;1.00;;;;;;5070436;28;20449;-60
2021/06/21 04:19:06;;;;;;;13.27;5.23;;;25.60;1.00;;;;;;5070159;28;20453;-59
2021/06/21 04:21:32;;;;;;;8.70;4.60;;;25.40;1.00;;;;;;5068761;28;20962;-59
2021/06/21 04:23:58;;;;;;;9.47;4.53;;;25.40;1.00;;;;;;5070520;28;20172;-59
2021/06/21 04:26:24;;;;;;;6.77;4.07;;;25.50;1.00;;;;;;5069895;28;20479;-61
2021/06/21 04:28:50;;;;;;;9.73;4.60;;;25.50;1.00;;;;;;5069978;28;20551;-59
2021/06/21 04:31:16;;;;;;;6.30;4.70;;;25.50;1.00;;;;;;5069906;28;20185;-59
2021/06/21 04:33:42;;;;;;;6.97;4.40;;;25.50;1.00;;;;;;5070167;28;20818;-60
2021/06/21 04:36:08;;;;;;;9.03;4.83;;;25.60;1.00;;;;;;5069586;28;20441;-60
2021/06/21 04:38:33;;;;;;;5.87;4.70;;;25.50;1.00;;;;;;5069898;28;20183;-59
2021/06/21 04:40:59;;;;;;;6.67;4.40;;;25.50;1.00;;;;;;5070081;28;20541;-59
2021/06/21 04:43:24;;;;;;;8.17;5.10;;;25.60;1.00;;;;;;5069695;28;20183;-61
2021/06/21 04:45:50;;;;;;;6.87;4.67;;;25.70;1.00;;;;;;5070154;28;20605;-60
2021/06/21 04:48:16;;;;;;;6.93;5.40;;;25.80;1.00;;;;;;5069989;28;20180;-60
2021/06/21 04:50:42;;;;;;;8.70;5.23;;;25.90;1.00;;;;;;5069734;28;20183;-60
2021/06/21 04:53:12;;;;;;;11.97;5.10;;;25.90;1.00;;;;;;5069589;28;20571;-60
2021/06/21 04:55:38;;;;;;;12.70;5.40;;;26.10;1.00;;;;;;5069382;28;20516;-59
2021/06/21 04:58:03;;;;;;;10.80;5.77;;;26.30;1.00;;;;;;5069676;28;20442;-60
2021/06/21 05:00:29;;;;;;;8.70;4.97;;;26.40;1.00;;;;;;5069126;28;20484;-60
2021/06/21 05:02:54;;;;;;;8.80;5.60;;;26.60;1.00;;;;;;5068685;28;20179;-61
2021/06/21 05:05:20;;;;;;;8.40;5.37;;;26.70;1.00;;;;;;5069602;28;20617;-61
2021/06/21 05:07:48;;;;;;;10.30;5.47;;;26.90;1.00;;;;;;5069166;28;20190;-60
2021/06/21 05:10:14;;;;;;;8.83;5.53;;;26.90;1.00;;;;;;5068576;28;20174;-60
2021/06/21 05:12:40;;;;;;;10.27;6.20;;;26.90;1.00;;;;;;5067903;28;20906;-60
2021/06/21 05:15:06;;;;;;;11.13;6.77;;;26.90;1.00;;;;;;5069579;28;20524;-61
2021/06/21 05:17:32;;;;;;;7.20;5.33;;;26.90;1.00;;;;;;5068108;28;20786;-60
2021/06/21 05:19:58;;;;;;;6.23;5.43;;;27.10;1.00;;;;;;5069283;28;20461;-60
2021/06/21 05:22:25;;;;;;;10.50;6.50;;;27.10;1.00;;;;;;5069527;28;20426;-60
2021/06/21 05:24:50;;;;;;;7.17;5.70;;;27.20;1.00;;;;;;5070566;28;20247;-59
2021/06/21 05:27:16;;;;;;;12.33;6.20;;;27.20;1.00;;;;;;5073624;28;20430;-60
2021/06/21 05:29:41;;;;;;;9.93;6.40;;;27.30;1.00;;;;;;5073092;28;20253;-61
2021/06/21 05:32:07;;;;;;;15.60;6.63;;;27.20;1.00;;;;;;5073164;28;20187;-60
2021/06/21 05:34:33;;;;;;;12.53;5.40;;;27.30;1.00;;;;;;5073225;28;20657;-60
2021/06/21 05:36:58;;;;;;;8.27;4.87;;;27.50;1.00;;;;;;5072742;28;20182;-60
2021/06/21 05:39:24;;;;;;;12.80;6.00;;;27.60;1.00;;;;;;5073401;28;20205;-60
2021/06/21 05:41:49;;;;;;;8.27;5.23;;;27.70;1.00;;;;;;5072673;28;20175;-59
2021/06/21 05:44:15;;;;;;;9.47;5.50;;;27.90;1.00;;;;;;5071406;28;20193;-60
2021/06/21 05:46:41;;;;;;;8.43;4.93;;;27.90;1.00;;;;;;5071453;28;20658;-60
2021/06/21 05:49:06;;;;;;;11.13;5.73;;;28.00;1.00;;;;;;5072830;28;20809;-60
2021/06/21 05:51:32;;;;;;;14.47;6.30;;;28.20;1.00;;;;;;5072769;28;20179;-61
2021/06/21 05:53:58;;;;;;;9.20;5.90;;;28.20;1.00;;;;;;5072594;28;20198;-60
2021/06/21 05:56:23;;;;;;;18.60;5.77;;;28.30;1.00;;;;;;5072551;28;20263;-60
2021/06/21 05:58:49;;;;;;;8.10;5.73;;;28.30;1.00;;;;;;5072140;28;20180;-61
2021/06/21 06:01:14;;;;;;;7.03;6.20;;;28.40;1.00;;;;;;5070816;28;20650;-60
2021/06/21 06:03:40;;;;;;;13.23;6.50;;;28.40;1.00;;;;;;5072390;28;20277;-59
2021/06/21 06:06:06;;;;;;;12.57;6.60;;;28.40;1.00;;;;;;5072061;28;20187;-61
2021/06/21 06:08:31;;;;;;;14.93;7.30;;;28.50;1.00;;;;;;5072058;28;20179;-60
2021/06/21 06:10:57;;;;;;;14.83;7.00;;;28.50;1.00;;;;;;5071935;28;20478;-59
2021/06/21 06:13:23;;;;;;;12.37;7.27;;;28.50;1.00;;;;;;5071762;28;20347;-60
2021/06/21 06:15:49;;;;;;;13.47;8.20;;;28.60;1.00;;;;;;5072556;28;20445;-63
2021/06/21 06:18:15;;;;;;;10.90;7.67;;;28.60;1.00;;;;;;5081815;28;20182;-60
2021/06/21 06:20:42;;;;;;;12.87;8.40;;;28.60;1.00;;;;;;5092493;28;20255;-60
2021/06/21 06:23:07;;;;;;;12.50;8.50;;;28.90;1.00;;;;;;5085860;28;20434;-60
2021/06/21 06:25:34;;;;;;;13.07;8.13;;;28.70;1.00;;;;;;5092037;28;20444;-60
2021/06/21 06:27:59;;;;;;;12.87;7.60;;;28.80;1.00;;;;;;5091452;28;20241;-60
2021/06/21 06:30:26;;;;;;;14.63;8.20;;;28.90;1.00;;;;;;5091999;28;20528;-60
2021/06/21 06:32:51;;;;;;;11.03;7.47;;;29.10;1.00;;;;;;5090527;28;20190;-60
2021/06/21 06:35:17;;;;;;;12.53;8.60;;;29.40;1.00;;;;;;5092116;28;20428;-60
2021/06/21 06:37:44;;;;;;;9.00;8.10;;;29.50;1.00;;;;;;5075433;28;20179;-60
2021/06/21 06:40:10;;;;;;;9.17;7.70;;;29.50;1.00;;;;;;5073781;28;20278;-60
2021/06/21 06:42:36;;;;;;;13.63;8.00;;;29.60;1.00;;;;;;5091434;28;20424;-60
2021/06/21 06:45:03;;;;;;;11.23;8.23;;;29.70;1.00;;;;;;5090560;28;20431;-59
2021/06/21 06:47:31;;;;;;;11.27;7.80;;;29.70;1.00;;;;;;5091579;28;20183;-60
2021/06/21 06:49:57;;;;;;;16.30;8.10;;;29.80;1.00;;;;;;5089891;28;20445;-59
2021/06/21 06:52:24;;;;;;;11.70;7.93;;;29.80;1.00;;;;;;5090274;28;21030;-59
2021/06/21 06:57:39;;;;;;;8.30;7.03;;;28.60;1.00;;;;;;5092046;28;20436;-59
2021/06/21 07:00:10;;;;;;;15.27;7.40;;;28.10;1.00;;;;;;5072541;28;20500;-61
2021/06/21 07:02:36;;;;;;;11.17;6.90;;;27.90;1.00;;;;;;5071422;28;20422;-59
2021/06/21 07:05:03;;;;;;;11.50;6.40;;;27.80;1.00;;;;;;5071185;28;20541;-60
2021/06/21 07:07:29;;;;;;;14.20;6.43;;;27.90;1.00;;;;;;5071109;28;20187;-59
2021/06/21 07:09:55;;;;;;;10.90;6.93;;;27.80;1.00;;;;;;5070926;28;20451;-60
2021/06/21 07:12:20;;;;;;;10.23;6.17;;;27.90;1.00;;;;;;5070845;28;20186;-60
2021/06/21 07:14:46;;;;;;;10.33;6.67;;;27.90;1.00;;;;;;5071012;28;20234;-60
2021/06/21 07:17:11;;;;;;;6.80;5.27;;;28.00;1.00;;;;;;5071180;28;20192;-61
2021/06/21 07:19:37;;;;;;;8.67;6.20;;;28.20;1.00;;;;;;5073908;28;20218;-60
2021/06/21 07:22:03;;;;;;;9.67;5.57;;;28.20;1.00;;;;;;5091226;28;20177;-59
2021/06/21 07:24:29;;;;;;;13.40;5.73;;;28.10;1.00;;;;;;5091207;28;20182;-61
2021/06/21 07:26:55;;;;;;;8.83;5.30;;;28.20;1.00;;;;;;5091200;28;20882;-61
2021/06/21 07:29:21;;;;;;;12.93;6.17;;;28.10;1.00;;;;;;5091142;28;20460;-59
2021/06/21 07:31:47;;;;;;;12.40;5.57;;;27.80;1.00;;;;;;5090989;28;20440;-60
2021/06/21 07:34:13;;;;;;;8.13;5.23;;;27.80;1.00;;;;;;5090819;28;20265;-60
2021/06/21 07:36:38;;;;;;;9.07;5.20;;;28.00;1.00;;;;;;5089299;28;20525;-60
2021/06/21 07:39:06;;;;;;;10.33;5.80;;;28.40;1.00;;;;;;5089213;28;20559;-59
2021/06/21 07:41:32;;;;;;;10.73;7.00;;;28.60;1.00;;;;;;5090382;28;20178;-61
2021/06/21 07:43:57;;;;;;;13.37;6.43;;;28.50;1.00;;;;;;5077440;28;20436;-59
2021/06/21 07:46:23;;;;;;;9.90;6.30;;;28.50;1.00;;;;;;5070331;28;20449;-60
2021/06/21 07:48:49;;;;;;;12.33;6.30;;;28.60;1.00;;;;;;5069087;28;20180;-60
2021/06/21 07:51:15;;;;;;;15.37;6.70;;;28.80;1.00;;;;;;5068653;28;20595;-60
2021/06/21 07:53:42;;;;;;;13.20;6.70;;;28.70;1.00;;;;;;5086949;28;20437;-61
2021/06/21 07:56:09;;;;;;;14.50;6.70;;;28.80;1.00;;;;;;5089078;28;20179;-59
2021/06/21 07:58:39;;;;;;;10.03;6.57;;;29.10;1.00;;;;;;5090390;28;20436;-59
2021/06/21 08:01:06;;;;;;;9.13;6.03;;;29.30;1.00;;;;;;5090520;28;20437;-61
2021/06/21 08:03:32;;;;;;;9.77;5.87;;;29.40;1.00;;;;;;5090144;28;20445;-60
2021/06/21 08:06:01;;;;;;;12.80;6.60;;;29.50;1.00;;;;;;5090283;28;20433;-59
2021/06/21 08:08:27;;;;;;;9.20;6.20;;;29.60;1.00;;;;;;5090154;28;20443;-61
2021/06/21 08:10:53;;;;;;;10.17;5.60;;;29.90;1.00;;;;;;5077676;28;20457;-60
2021/06/21 08:13:18;;;;;;;11.83;5.60;;;30.10;1.00;;;;;;5069980;28;20442;-60
2021/06/21 08:15:45;;;;;;;10.53;5.30;;;30.00;1.00;;;;;;5069923;28;20183;-60
2021/06/21 08:18:10;;;;;;;6.80;5.40;;;29.80;1.00;;;;;;5068811;28;20191;-60
2021/06/21 08:20:39;;;;;;;6.33;5.37;;;29.30;1.00;;;;;;5069867;28;20815;-61
2021/06/21 08:23:05;;;;;;;8.73;5.00;;;29.20;1.00;;;;;;5070419;28;20190;-59
2021/06/21 08:25:30;;;;;;;6.87;4.80;;;29.20;1.00;;;;;;5070132;28;20421;-59
2021/06/21 08:27:56;;;;;;;13.27;6.43;;;29.20;1.00;;;;;;5070140;28;20291;-60
2021/06/21 08:30:22;;;;;;;8.90;5.40;;;29.30;1.00;;;;;;5070319;28;20190;-60
2021/06/21 08:32:48;;;;;;;8.47;5.63;;;29.40;1.00;;;;;;5069755;28;20444;-59
2021/06/21 08:35:14;;;;;;;9.60;5.30;;;29.40;1.00;;;;;;5069882;28;20175;-60
2021/06/21 08:37:39;;;;;;;10.10;6.10;;;29.70;1.00;;;;;;5069706;28;20183;-59
2021/06/21 08:40:07;;;;;;;5.93;5.03;;;29.90;1.00;;;;;;5069884;28;20557;-60
2021/06/21 08:42:35;;;;;;;6.47;4.80;;;29.80;1.00;;;;;;5068645;28;20183;-60
2021/06/21 08:45:02;;;;;;;6.73;5.47;;;29.80;1.00;;;;;;5088727;28;20476;-59
2021/06/21 08:47:29;;;;;;;6.60;5.97;;;29.60;1.00;;;;;;5088704;28;20432;-60
2021/06/21 08:49:55;;;;;;;7.00;5.40;;;29.40;1.00;;;;;;5077360;28;20548;-62
2021/06/21 08:52:21;;;;;;;7.17;5.63;;;29.40;1.00;;;;;;5068496;28;20533;-59
2021/06/21 08:54:47;;;;;;;8.17;4.90;;;29.40;1.00;;;;;;5069464;28;20799;-61
2021/06/21 08:57:13;;;;;;;7.20;5.43;;;29.40;1.00;;;;;;5069478;28;20190;-61
2021/06/21 08:59:42;;;;;;;12.40;6.40;;;29.40;1.00;;;;;;5068956;28;20890;-60
2021/06/21 09:02:08;;;;;;;10.20;5.43;;;29.30;1.00;;;;;;5073584;28;20863;-59
2021/06/21 09:04:38;;;;;;;7.43;5.03;;;29.40;1.00;;;;;;5072314;28;20477;-60
2021/06/21 09:07:22;;;;;;;11.37;5.63;;;29.70;1.00;;;;;;5071744;28;20195;-60
2021/06/21 09:09:49;;;;;;;10.37;5.50;;;30.00;1.00;;;;;;5073823;28;20468;-60
2021/06/21 09:12:27;;;;;;;10.13;5.77;;;29.70;1.00;;;;;;5072412;28;20509;-60
2021/06/21 09:14:57;;;;;;;7.60;4.67;;;29.80;1.00;;;;;;5073236;28;20479;-60
2021/06/21 09:17:25;;;;;;;7.87;5.80;;;29.80;1.00;;;;;;5073435;28;20441;-60
2021/06/21 09:19:56;;;;;;;9.60;4.87;;;29.60;1.00;;;;;;5073013;28;20488;-59
2021/06/21 09:22:26;;;;;;;10.77;5.80;;;29.80;1.00;;;;;;5073225;28;20464;-61
2021/06/21 09:24:52;;;;;;;6.23;5.33;;;30.10;1.00;;;;;;5090065;28;20435;-60
2021/06/21 09:27:19;;;;;;;10.13;5.20;;;30.30;1.00;;;;;;5093232;28;20437;-61
2021/06/21 09:29:45;;;;;;;7.90;5.60;;;30.40;1.00;;;;;;5077434;28;20219;-61
2021/06/21 09:32:11;;;;;;;10.57;5.67;;;30.20;1.00;;;;;;5073184;28;20429;-61
2021/06/21 09:34:40;;;;;;;8.80;4.80;;;29.90;1.00;;;;;;5073223;28;20488;-60
2021/06/21 09:37:07;;;;;;;7.90;5.00;;;29.90;1.00;;;;;;5072718;28;20476;-61
2021/06/21 09:39:36;;;;;;;7.60;5.07;;;29.90;1.00;;;;;;5071684;28;20591;-61
2021/06/21 09:42:12;;;;;;;7.07;4.37;;;30.10;1.00;;;;;;5072650;28;20442;-62
2021/06/21 09:44:46;;;;;;;9.40;4.63;;;30.40;1.00;;;;;;5072732;28;20433;-63
2021/06/21 09:47:13;;;;;;;14.37;5.10;;;30.80;1.00;;;;;;5072676;28;20563;-61
2021/06/21 09:49:39;;;;;;;8.30;4.30;;;31.10;1.00;;;;;;5072639;28;20944;-60
2021/06/21 09:52:04;;;;;;;6.80;4.20;;;31.20;1.00;;;;;;5072767;28;20429;-61
2021/06/21 09:54:34;;;;;;;10.20;4.40;;;31.10;1.00;;;;;;5072496;28;20535;-61
2021/06/21 09:57:13;;;;;;;14.07;5.87;;;31.20;1.00;;;;;;5072710;28;20248;-58
2021/06/21 09:59:47;;;;;;;8.43;4.60;;;31.40;1.00;;;;;;5072160;28;20427;-61
2021/06/21 10:02:26;;;;;;;8.47;4.27;;;31.60;1.00;;;;;;5072891;28;20522;-62
2021/06/21 10:04:52;;;;;;;6.67;3.57;;;31.40;1.00;;;;;;5072230;28;20528;-61
2021/06/21 10:07:32;;;;;;;4.93;3.00;;;31.40;1.00;;;;;;5072120;28;20513;-60
2021/06/21 10:10:09;;;;;;;6.53;3.53;;;31.20;1.00;;;;;;5072371;28;20179;-60
2021/06/21 10:12:36;;;;;;;6.27;3.10;;;31.30;1.00;;;;;;5071014;28;20498;-59
2021/06/21 10:15:03;;;;;;;12.13;4.23;;;31.50;1.00;;;;;;5072542;28;20433;-59
2021/06/21 10:17:29;;;;;;;7.37;3.50;;;31.50;1.00;;;;;;5071822;28;20446;-60
2021/06/21 10:19:56;;;;;;;6.53;2.73;;;31.20;1.00;;;;;;5072245;28;20457;-59
2021/06/21 10:22:23;;;;;;;7.67;2.80;;;31.40;1.00;;;;;;5071872;28;20252;-61
2021/06/21 10:24:55;;;;;;;6.07;2.90;;;31.60;1.00;;;;;;5072071;28;20441;-59
2021/06/21 10:27:21;;;;;;;6.30;2.80;;;31.60;1.00;;;;;;5072229;28;20484;-60
2021/06/21 10:29:47;;;;;;;8.70;3.33;;;31.40;1.00;;;;;;5071877;28;20473;-60
2021/06/21 10:32:14;;;;;;;7.80;2.70;;;31.40;1.00;;;;;;5072056;28;20442;-61
2021/06/21 10:34:40;;;;;;;8.03;2.60;;;31.30;1.00;;;;;;5072090;28;20503;-60
2021/06/21 10:37:14;;;;;;;6.00;2.50;;;31.10;1.00;;;;;;5072104;28;20518;-61
2021/06/21 10:39:49;;;;;;;4.17;2.03;;;31.30;1.00;;;;;;5071870;28;20457;-61
2021/06/21 10:42:15;;;;;;;5.80;2.47;;;31.50;1.00;;;;;;5070464;28;20429;-61
2021/06/21 10:44:58;;;;;;;6.80;2.60;;;31.40;1.00;;;;;;5070493;28;20959;-62
2021/06/21 10:47:38;;;;;;;6.10;2.50;;;31.20;1.00;;;;;;5071728;28;20436;-61
2021/06/21 10:50:16;;;;;;;3.70;2.30;;;31.20;1.00;;;;;;5071528;28;20441;-59
2021/06/21 10:52:53;;;;;;;3.63;1.93;;;31.40;1.00;;;;;;5083056;28;20440;-59
2021/06/21 10:57:48;;;;;;;7.30;2.20;;;31.50;1.00;;;;;;5091993;28;20433;-63
2021/06/21 11:00:15;;;;;;;4.70;2.10;;;31.40;1.00;;;;;;5091538;28;20460;-60
2021/06/21 11:02:41;;;;;;;10.20;2.40;;;31.50;1.00;;;;;;5091731;28;20424;-60
2021/06/21 11:05:08;;;;;;;5.27;2.67;;;31.80;1.00;;;;;;5091740;28;20832;-60
2021/06/21 11:07:34;;;;;;;5.30;2.20;;;31.90;1.00;;;;;;5091786;28;20190;-61
2021/06/21 11:10:01;;;;;;;3.63;2.03;;;31.80;1.00;;;;;;5091634;28;20448;-61
2021/06/21 11:12:30;;;;;;;7.40;2.57;;;31.60;1.00;;;;;;5091753;28;20479;-61
2021/06/21 11:15:08;;;;;;;6.70;2.37;;;31.50;1.00;;;;;;5091670;28;20455;-60
2021/06/21 11:17:46;;;;;;;5.00;2.33;;;31.60;1.00;;;;;;5091921;28;20424;-61
2021/06/21 11:20:31;;;;;;;7.00;2.63;;;31.60;1.00;;;;;;5091281;28;20471;-60
2021/06/21 11:23:02;;;;;;;4.67;2.47;;;31.60;1.00;;;;;;5091119;28;20460;-61
2021/06/21 11:25:34;;;;;;;6.73;2.40;;;31.50;1.00;;;;;;5089987;28;20432;-59
2021/06/21 11:28:00;;;;;;;5.80;2.67;;;31.60;1.00;;;;;;5090932;28;20979;-61
2021/06/21 11:30:39;;;;;;;6.47;2.43;;;31.50;1.00;;;;;;5091135;28;20468;-60
2021/06/21 11:33:06;;;;;;;5.03;2.10;;;31.60;1.00;;;;;;5091095;28;20433;-62
2021/06/21 11:35:53;;;;;;;6.07;2.40;;;31.50;1.00;;;;;;5091363;28;20433;-61
2021/06/21 11:38:37;;;;;;;5.27;2.07;;;31.40;1.00;;;;;;5091222;28;20602;-61
2021/06/21 11:41:16;;;;;;;10.63;2.50;;;31.40;1.00;;;;;;5090956;28;20897;-62
2021/06/21 11:43:45;;;;;;;5.80;2.93;;;31.50;1.00;;;;;;5091230;28;20432;-61
2021/06/21 11:46:11;;;;;;;6.03;2.40;;;31.80;1.00;;;;;;5089823;28;20964;-61
2021/06/21 11:48:38;;;;;;;5.20;2.43;;;32.10;1.00;;;;;;5075047;28;20514;-60
2021/06/21 11:51:16;;;;;;;7.37;2.20;;;31.80;1.00;;;;;;5070624;28;20179;-59
2021/06/21 11:53:43;;;;;;;10.00;3.00;;;31.60;1.00;;;;;;5070560;28;20437;-59
2021/06/21 11:56:12;;;;;;;7.03;2.43;;;31.50;1.00;;;;;;5070700;28;21990;-61
2021/06/21 11:58:38;;;;;;;4.20;2.70;;;31.60;1.00;;;;;;5070584;28;20420;-60
2021/06/21 12:01:16;;;;;;;4.27;2.43;;;31.60;1.00;;;;;;5070369;28;20997;-61
2021/06/21 12:03:44;;;;;;;5.50;2.90;;;31.80;1.00;;;;;;5070903;28;20207;-60
2021/06/21 12:06:17;;;;;;;11.30;2.83;;;32.00;1.00;;;;;;5069429;28;20487;-61
2021/06/21 12:08:44;;;;;;;10.20;3.30;;;32.10;1.00;;;;;;5069198;28;20939;-59
2021/06/21 12:11:27;;;;;;;4.20;2.70;;;32.10;1.00;;;;;;5070494;28;20434;-60
2021/06/21 12:14:05;;;;;;;5.93;2.93;;;31.90;1.00;;;;;;5070375;28;20497;-60
2021/06/21 12:16:36;;;;;;;7.90;2.70;;;32.00;1.00;;;;;;5070362;28;20429;-60
2021/06/21 12:19:03;;;;;;;7.63;3.37;;;31.80;1.00;;;;;;5070225;28;20521;-61
2021/06/21 12:21:36;;;;;;;9.30;3.03;;;31.90;1.00;;;;;;5070076;28;20503;-61
2021/06/21 12:24:15;;;;;;;11.50;3.53;;;31.90;1.00;;;;;;5069963;28;20433;-61
2021/06/21 12:26:41;;;;;;;6.30;2.90;;;31.70;1.00;;;;;;5070019;28;20950;-61
2021/06/21 12:29:20;;;;;;;5.63;3.17;;;31.70;1.00;;;;;;5070203;28;20461;-61
2021/06/21 12:31:50;;;;;;;5.47;2.30;;;31.90;1.00;;;;;;5069654;28;20639;-60
2021/06/21 12:34:16;;;;;;;7.13;2.40;;;31.90;1.00;;;;;;5087106;28;20445;-59
2021/06/21 12:36:41;;;;;;;7.93;3.30;;;31.60;1.00;;;;;;5085512;28;20433;-61
2021/06/21 12:39:07;;;;;;;7.60;2.63;;;31.50;1.00;;;;;;5069896;28;20199;-60
2021/06/21 12:41:35;;;;;;;7.23;2.30;;;31.70;1.00;;;;;;5070163;28;20244;-60
2021/06/21 12:44:20;;;;;;;6.33;2.37;;;31.70;1.00;;;;;;5069890;28;20171;-60
2021/06/21 12:46:47;;;;;;;5.00;2.67;;;31.70;1.00;;;;;;5068335;28;20437;-60
2021/06/21 12:49:15;;;;;;;5.73;2.20;;;31.70;1.00;;;;;;5077466;28;20437;-61
2021/06/21 12:51:43;;;;;;;6.70;3.40;;;31.60;1.00;;;;;;5090027;28;20485;-61
2021/06/21 12:54:11;;;;;;;5.43;2.40;;;31.60;1.00;;;;;;5089823;28;20532;-60
2021/06/21 12:56:40;;;;;;;8.80;3.17;;;31.70;1.00;;;;;;5089932;28;20436;-60
2021/06/21 12:59:23;;;;;;;8.83;3.63;;;31.70;1.00;;;;;;5089565;28;20546;-62
2021/06/21 13:01:49;;;;;;;8.50;3.00;;;31.60;1.00;;;;;;5089905;28;20432;-60